Hauptseite
METAR-TAF:

METAR-TAF

Flughäfen :

Militärflugplatz Orléans-Bricy

Orléans, Frankreich

Breite: 47-59N, Länge: 001-45E, Höhe: 126 m

Beobachtung

Neuester Wetterbericht von vor 31 Minuten, um 13:00 UTC
Wind 10 kt aus Süd
Temperatur 24°C
Luftfeuchtigkeit 36%
Luftdruck 1010 hPa
Sichtweite 10 km oder mehr
keine Wolken unter 1500 m und keine Kumulonimbus oder Gewitterwolken

METAR: LFOJ 151300Z AUTO 17010KT CAVOK 24/08 Q1010 NOSIG

Zeit: 15:31 (13:31 UTC)

Prognose

Neuester Wetterbericht von vor 5 Stunden und 31 Minuten, um 08:00 UTC
Gültige Prognose vom 15 um 09 UTC bis 16 um 09 UTC
Wind 8 kt aus Ost/Südost
Sichtweite 10 km oder mehr
keine Wolken unter 1500 m und keine Kumulonimbus oder Gewitterwolken

TAF: LFOJ 150800Z 1509/1609 12008KT CAVOK

Wetterbeobachtungen und Prognosen von mehr als 4000 Flughäfen (METAR und TAF Bericht).

Die verfügbaren Stationen werden durch gelbe und rote Markierungen auf der Karte dargestellt.

Führen Sie die Maus auf sie, um den Namen der Station zu sehen.

Darauf klicken, um die Beobachtung von Wetterbeobachtungen und Prognosen zu sehen.

Um die Karte zu ändern : klicken Sie auf den grünen Tasten mit einem schwarzen Kreuz Zum Vergrößern, auf den grünen Button mit einem Gedankenstrich zu verkleinern, oder auf die grünen Pfeile für benachbarte Karten.


METAR-TAF: